createdAt,value
2022-11-15T00:02:00.785Z,46.13
2022-11-15T00:04:47.133Z,47.05
2022-11-15T00:07:54.598Z,49.80
2022-11-15T00:10:39.712Z,44.17
2022-11-15T00:13:25.782Z,49.88
2022-11-15T00:16:12.177Z,44.33
2022-11-15T00:18:59.430Z,45.75
2022-11-15T00:21:45.782Z,50.00
2022-11-15T00:24:32.078Z,52.10
2022-11-15T00:27:18.513Z,38.65
2022-11-15T00:30:04.973Z,45.90
2022-11-15T00:32:51.548Z,50.33
2022-11-15T00:35:38.008Z,43.92
2022-11-15T00:38:24.277Z,44.00
2022-11-15T00:41:10.538Z,43.53
2022-11-15T00:43:56.914Z,42.97
2022-11-15T00:46:43.122Z,45.45
2022-11-15T00:49:29.160Z,39.90
2022-11-15T00:52:15.038Z,40.13
2022-11-15T00:55:01.135Z,41.75
2022-11-15T00:57:48.085Z,42.17
2022-11-15T01:00:34.316Z,42.83
2022-11-15T01:03:20.549Z,40.67
2022-11-15T01:06:07.916Z,48.00
2022-11-15T01:08:53.928Z,42.20
2022-11-15T01:11:39.894Z,43.60
2022-11-15T01:14:25.937Z,39.60
2022-11-15T01:17:12.351Z,40.03
2022-11-15T01:19:58.782Z,37.13
2022-11-15T01:22:44.742Z,40.13
2022-11-15T01:25:30.808Z,40.45
2022-11-15T01:28:16.923Z,43.75
2022-11-15T01:31:04.904Z,40.83
2022-11-15T01:33:51.720Z,56.67
2022-11-15T01:36:38.062Z,39.67
2022-11-15T01:39:24.022Z,38.08
2022-11-15T01:42:16.529Z,41.17
2022-11-15T01:45:02.940Z,37.35
2022-11-15T01:47:54.932Z,43.00
2022-11-15T01:50:40.906Z,41.15
2022-11-15T01:53:28.368Z,37.15
2022-11-15T01:56:22.017Z,36.10
2022-11-15T01:59:09.902Z,48.20
2022-11-15T02:01:56.766Z,40.30
2022-11-15T02:04:46.178Z,37.15
2022-11-15T02:07:33.754Z,44.25
2022-11-15T02:10:23.384Z,38.08
2022-11-15T02:13:10.206Z,39.30
2022-11-15T02:16:08.382Z,40.45
2022-11-15T02:19:43.178Z,40.42
2022-11-15T02:23:06.683Z,43.42
2022-11-15T02:26:25.975Z,40.90
2022-11-15T02:29:22.997Z,35.97
2022-11-15T02:32:24.939Z,36.50
2022-11-15T02:35:26.202Z,38.05
2022-11-15T02:39:03.588Z,38.22
2022-11-15T02:42:34.502Z,36.85
2022-11-15T02:48:11.509Z,38.55
2022-11-15T02:50:58.056Z,39.63
2022-11-15T02:53:45.015Z,36.08
2022-11-15T02:56:32.293Z,35.28
2022-11-15T02:59:46.016Z,34.10
2022-11-15T03:02:41.778Z,36.65
2022-11-15T03:05:40.370Z,32.28
2022-11-15T03:08:47.716Z,36.80
2022-11-15T03:11:41.669Z,34.90
2022-11-15T03:14:35.912Z,32.80
2022-11-15T03:17:57.407Z,32.13
2022-11-15T03:20:44.868Z,29.75
2022-11-15T03:23:33.037Z,29.52
2022-11-15T03:26:24.750Z,33.42
2022-11-15T03:29:16.652Z,32.85
2022-11-15T03:32:13.819Z,34.30
2022-11-15T03:35:04.380Z,29.33
2022-11-15T03:41:05.305Z,28.23
2022-11-15T03:44:01.412Z,26.23
2022-11-15T03:47:03.470Z,27.27
2022-11-15T03:49:58.078Z,32.90
2022-11-15T03:52:47.677Z,33.70
2022-11-15T03:55:34.220Z,32.78
2022-11-15T03:58:20.888Z,32.38
2022-11-15T04:01:07.059Z,32.17
2022-11-15T04:03:53.699Z,30.08
2022-11-15T04:06:39.648Z,28.88
2022-11-15T04:09:25.673Z,32.17
2022-11-15T04:12:11.755Z,31.58
2022-11-15T04:15:08.880Z,32.20
2022-11-15T04:17:57.933Z,30.30
2022-11-15T04:21:03.027Z,26.33
2022-11-15T04:24:07.290Z,29.38
2022-11-15T04:26:53.524Z,29.48
2022-11-15T04:29:39.996Z,31.23
2022-11-15T04:32:26.311Z,28.92
2022-11-15T04:35:13.029Z,28.75
2022-11-15T04:38:00.091Z,29.58
2022-11-15T04:40:46.074Z,28.65
2022-11-15T04:43:32.608Z,31.73
2022-11-15T04:46:19.792Z,27.92
2022-11-15T04:49:06.084Z,28.83
2022-11-15T04:51:52.272Z,28.85
2022-11-15T04:54:38.649Z,28.00
2022-11-15T04:57:24.942Z,27.17
2022-11-15T05:00:14.054Z,30.50
2022-11-15T05:03:19.138Z,28.63
2022-11-15T05:06:06.308Z,28.73
2022-11-15T05:08:53.197Z,28.30
2022-11-15T05:11:40.095Z,27.60
2022-11-15T05:14:26.221Z,30.63
2022-11-15T05:17:12.319Z,29.52
2022-11-15T05:19:58.547Z,30.55
2022-11-15T05:22:44.901Z,31.20
2022-11-15T05:25:30.972Z,28.52
2022-11-15T05:28:17.101Z,29.10
2022-11-15T05:31:15.675Z,35.00
2022-11-15T05:34:03.234Z,31.00
2022-11-15T05:36:49.771Z,31.95
2022-11-15T05:39:36.141Z,33.28
2022-11-15T05:42:22.362Z,34.45
2022-11-15T05:45:09.919Z,36.33
2022-11-15T05:47:58.638Z,36.97
2022-11-15T05:50:48.248Z,35.75
2022-11-15T05:53:35.128Z,50.40
2022-11-15T05:56:22.100Z,35.15
2022-11-15T05:59:10.457Z,31.02
2022-11-15T06:01:56.601Z,26.50
2022-11-15T06:04:43.336Z,28.92
2022-11-15T06:07:31.112Z,28.85
2022-11-15T06:10:17.763Z,30.60
2022-11-15T06:13:05.944Z,30.23
2022-11-15T06:15:52.137Z,30.45
2022-11-15T06:18:39.103Z,29.95
2022-11-15T06:21:25.497Z,30.48
2022-11-15T06:24:12.262Z,30.17
2022-11-15T06:26:58.745Z,29.90
2022-11-15T06:29:45.240Z,28.17
2022-11-15T06:32:32.125Z,26.85
2022-11-15T06:35:19.052Z,28.17
2022-11-15T06:38:08.424Z,28.27
2022-11-15T06:40:54.369Z,26.05
2022-11-15T06:43:41.342Z,26.77
2022-11-15T06:46:28.090Z,26.80
2022-11-15T06:49:14.748Z,25.92
2022-11-15T06:52:01.400Z,25.58
2022-11-15T06:54:47.845Z,28.00
2022-11-15T06:57:34.162Z,26.70
2022-11-15T07:00:22.019Z,30.90
2022-11-15T07:03:08.034Z,30.95
2022-11-15T07:06:04.202Z,30.15
2022-11-15T07:08:53.396Z,26.58
2022-11-15T07:11:39.391Z,28.33
2022-11-15T07:14:26.182Z,24.10
2022-11-15T07:17:12.427Z,24.95
2022-11-15T07:19:58.749Z,26.35
2022-11-15T07:22:48.177Z,23.75
2022-11-15T07:25:34.881Z,26.13
2022-11-15T07:28:21.019Z,26.58
2022-11-15T07:31:09.536Z,27.48
2022-11-15T07:33:55.469Z,25.63
2022-11-15T07:36:41.583Z,23.20
2022-11-15T07:39:28.428Z,26.70
2022-11-15T07:42:33.243Z,25.70
2022-11-15T07:45:19.453Z,25.80
2022-11-15T07:48:06.631Z,25.17
2022-11-15T07:50:52.985Z,27.02
2022-11-15T07:53:39.423Z,29.33
2022-11-15T07:56:25.658Z,28.98
2022-11-15T07:59:11.625Z,30.55
2022-11-15T08:01:58.016Z,29.10
2022-11-15T08:04:45.340Z,26.73
2022-11-15T08:07:32.638Z,33.05
2022-11-15T08:10:20.319Z,29.70
2022-11-15T08:13:11.372Z,27.52
2022-11-15T08:16:01.665Z,24.65
2022-11-15T08:21:34.788Z,22.05
2022-11-15T08:24:21.593Z,22.00
2022-11-15T08:27:16.203Z,20.73
2022-11-15T08:30:02.838Z,20.05
2022-11-15T08:32:50.260Z,23.63
2022-11-15T08:35:36.268Z,22.58
2022-11-15T08:38:22.452Z,22.77
2022-11-15T08:41:12.471Z,23.95
2022-11-15T08:43:58.442Z,22.63
2022-11-15T08:46:47.505Z,23.50
2022-11-15T08:49:33.560Z,23.38
2022-11-15T08:52:20.131Z,23.52
2022-11-15T08:55:07.739Z,22.30
2022-11-15T08:57:53.813Z,22.83
2022-11-15T09:00:40.315Z,23.27
2022-11-15T09:03:26.429Z,25.90
2022-11-15T09:06:13.521Z,25.38
2022-11-15T09:08:59.727Z,27.50
2022-11-15T09:11:47.629Z,22.30
2022-11-15T09:14:34.438Z,24.73
2022-11-15T09:20:26.865Z,22.80
2022-11-15T09:23:13.325Z,24.30
2022-11-15T09:26:02.356Z,22.70
2022-11-15T09:28:49.481Z,27.35
2022-11-15T09:31:35.407Z,19.33
2022-11-15T09:34:22.180Z,23.58
2022-11-15T09:37:08.596Z,26.40
2022-11-15T09:39:54.672Z,22.23
2022-11-15T09:43:01.825Z,21.00
2022-11-15T09:46:10.860Z,19.80
2022-11-15T09:49:09.763Z,20.95
2022-11-15T09:51:57.101Z,22.92
2022-11-15T09:57:17.369Z,22.25
2022-11-15T09:59:53.748Z,18.98
2022-11-15T10:02:39.088Z,22.35
2022-11-15T10:05:12.258Z,20.17
2022-11-15T10:08:10.792Z,22.23
2022-11-15T10:11:22.688Z,21.38
2022-11-15T10:13:48.869Z,19.08
2022-11-15T10:16:32.043Z,20.77
2022-11-15T10:19:14.514Z,20.75
2022-11-15T10:22:15.858Z,20.83
2022-11-15T10:24:47.145Z,19.08
2022-11-15T10:27:19.825Z,20.15
2022-11-15T10:29:49.705Z,23.17
2022-11-15T10:32:20.041Z,20.95
2022-11-15T10:34:50.091Z,19.58
2022-11-15T10:37:33.020Z,20.95
2022-11-15T10:40:18.706Z,19.00
2022-11-15T10:42:46.947Z,21.60
2022-11-15T10:45:30.620Z,20.30
2022-11-15T10:48:22.962Z,20.35
2022-11-15T10:50:52.941Z,22.70
2022-11-15T10:53:42.162Z,21.88
2022-11-15T10:56:16.843Z,25.88
2022-11-15T10:58:51.373Z,28.98
2022-11-15T11:01:23.013Z,28.17
2022-11-15T11:04:10.686Z,26.77
2022-11-15T11:07:00.448Z,23.98
2022-11-15T11:09:38.898Z,24.83
2022-11-15T11:12:11.080Z,21.15
2022-11-15T11:14:41.127Z,21.42
2022-11-15T11:17:23.003Z,21.42
2022-11-15T11:20:00.192Z,22.48
2022-11-15T11:22:44.534Z,23.48
2022-11-15T11:25:30.327Z,24.48
2022-11-15T11:28:25.601Z,23.75
2022-11-15T11:30:56.231Z,21.05
2022-11-15T11:33:40.177Z,23.42
2022-11-15T11:36:41.112Z,24.52
2022-11-15T11:39:39.287Z,23.85
2022-11-15T11:42:25.553Z,28.40
2022-11-15T11:45:20.815Z,24.40
2022-11-15T11:47:55.049Z,26.05
2022-11-15T11:50:28.290Z,25.65
2022-11-15T11:53:25.004Z,30.45
2022-11-15T11:56:00.322Z,27.08
2022-11-15T11:58:38.546Z,25.00
2022-11-15T12:01:12.743Z,79.47
2022-11-15T12:03:49.002Z,27.05
2022-11-15T12:06:39.030Z,28.75
2022-11-15T12:09:16.089Z,23.50
2022-11-15T12:11:56.761Z,38.65
2022-11-15T12:14:49.406Z,74.60
2022-11-15T12:17:22.014Z,23.67
2022-11-15T12:19:50.269Z,27.98
2022-11-15T12:22:23.074Z,25.00
2022-11-15T12:25:04.100Z,21.88
2022-11-15T12:27:38.771Z,22.02
2022-11-15T12:30:17.242Z,25.33
2022-11-15T12:32:58.244Z,36.88
2022-11-15T12:35:37.028Z,25.45
2022-11-15T12:38:05.757Z,24.63
2022-11-15T12:40:36.162Z,26.27
2022-11-15T12:45:40.144Z,26.70
2022-11-15T12:50:56.968Z,22.75
2022-11-15T12:53:25.437Z,24.40
2022-11-15T12:56:21.795Z,25.13
2022-11-15T12:58:51.471Z,27.50
2022-11-15T13:01:35.130Z,25.43
2022-11-15T13:04:30.760Z,26.05
2022-11-15T13:07:02.627Z,30.38
2022-11-15T13:09:33.582Z,28.77
2022-11-15T13:12:05.673Z,32.17
2022-11-15T13:14:47.026Z,33.50
2022-11-15T13:17:24.144Z,34.17
2022-11-15T13:20:18.137Z,28.83
2022-11-15T13:22:53.662Z,29.73
2022-11-15T13:25:40.020Z,37.00
2022-11-15T13:28:31.158Z,29.08
2022-11-15T13:31:28.298Z,27.80
2022-11-15T13:33:59.711Z,35.33
2022-11-15T13:36:32.012Z,34.50
2022-11-15T13:39:02.752Z,33.67
2022-11-15T13:41:33.895Z,36.90
2022-11-15T13:44:03.229Z,46.65
2022-11-15T13:46:34.061Z,44.75
2022-11-15T13:49:09.170Z,50.95
2022-11-15T13:51:41.829Z,53.13
2022-11-15T13:54:19.057Z,54.10
2022-11-15T13:56:57.423Z,58.33
2022-11-15T13:59:31.139Z,73.72
2022-11-15T14:02:04.816Z,65.88
2022-11-15T14:04:35.675Z,69.07
2022-11-15T14:07:03.996Z,60.38
2022-11-15T14:09:37.045Z,67.57
2022-11-15T14:12:26.308Z,44.95
2022-11-15T14:14:54.265Z,39.05
2022-11-15T14:17:35.994Z,50.63
2022-11-15T14:20:21.056Z,45.42
2022-11-15T14:23:01.022Z,50.97
2022-11-15T14:25:36.849Z,66.05
2022-11-15T14:28:12.603Z,61.38
2022-11-15T14:30:41.842Z,58.47
2022-11-15T14:33:35.816Z,57.08
2022-11-15T14:36:18.318Z,52.55
2022-11-15T14:38:47.047Z,50.90
2022-11-15T14:41:26.128Z,44.83
2022-11-15T14:43:54.542Z,42.22
2022-11-15T14:46:22.362Z,45.08
2022-11-15T14:48:50.037Z,46.17
2022-11-15T14:51:19.042Z,47.83
2022-11-15T14:53:48.091Z,46.90
2022-11-15T14:56:17.411Z,43.70
2022-11-15T14:58:45.363Z,40.22
2022-11-15T15:01:25.227Z,41.83
2022-11-15T15:03:56.993Z,40.80
2022-11-15T15:06:24.836Z,39.75
2022-11-15T15:08:53.133Z,36.15
2022-11-15T15:11:32.152Z,41.33
2022-11-15T15:14:02.414Z,35.83
2022-11-15T15:16:30.359Z,33.95
2022-11-15T15:18:58.103Z,34.03
2022-11-15T15:21:37.082Z,35.60
2022-11-15T15:24:06.018Z,33.83
2022-11-15T15:26:37.600Z,32.28
2022-11-15T15:29:05.838Z,28.88
2022-11-15T15:31:34.560Z,31.27
2022-11-15T15:34:02.882Z,32.50
2022-11-15T15:36:30.679Z,32.40
2022-11-15T15:38:58.734Z,34.92
2022-11-15T15:41:26.554Z,39.95
2022-11-15T15:43:54.315Z,43.58
2022-11-15T15:46:22.731Z,38.60
2022-11-15T15:48:50.558Z,40.25
2022-11-15T15:51:20.406Z,40.08
2022-11-15T15:53:49.595Z,33.28
2022-11-15T15:56:17.490Z,32.53
2022-11-15T15:58:45.611Z,30.50
2022-11-15T16:01:13.485Z,33.53
2022-11-15T16:03:41.771Z,28.65
2022-11-15T16:06:35.462Z,32.85
2022-11-15T16:09:20.649Z,29.98
2022-11-15T16:11:49.525Z,31.45
2022-11-15T16:14:17.327Z,34.60
2022-11-15T16:16:45.145Z,32.05
2022-11-15T16:19:13.553Z,33.45
2022-11-15T16:21:41.909Z,29.92
2022-11-15T16:24:09.770Z,29.33
2022-11-15T16:26:38.665Z,37.03
2022-11-15T16:29:08.044Z,37.97
2022-11-15T16:31:36.268Z,35.88
2022-11-15T16:34:04.546Z,34.33
2022-11-15T16:36:35.338Z,32.55
2022-11-15T16:39:06.623Z,30.70
2022-11-15T16:41:34.370Z,37.60
2022-11-15T16:44:02.252Z,42.30
2022-11-15T16:46:32.650Z,39.97
2022-11-15T16:49:00.441Z,41.72
2022-11-15T16:51:28.197Z,39.53
2022-11-15T16:53:55.768Z,41.03
2022-11-15T16:56:27.626Z,41.50
2022-11-15T16:59:00.064Z,45.53
2022-11-15T17:01:46.961Z,43.90
2022-11-15T17:04:16.657Z,47.60
2022-11-15T17:06:47.012Z,51.55
2022-11-15T17:11:48.880Z,44.63
2022-11-15T17:14:17.460Z,44.38
2022-11-15T17:16:45.818Z,47.58
2022-11-15T17:19:16.015Z,42.78
2022-11-15T17:21:45.063Z,47.53
2022-11-15T17:24:13.593Z,45.95
2022-11-15T17:26:43.225Z,58.25
2022-11-15T17:29:11.792Z,69.50
2022-11-15T17:31:39.988Z,68.97
2022-11-15T17:34:09.409Z,90.57
2022-11-15T17:36:40.494Z,86.63
2022-11-15T17:39:09.792Z,83.55
2022-11-15T17:41:37.843Z,89.05
2022-11-15T17:44:05.950Z,75.63
2022-11-15T17:46:34.691Z,80.32
2022-11-15T17:49:02.729Z,83.03
2022-11-15T17:51:30.803Z,74.00
2022-11-15T17:53:59.097Z,82.90
2022-11-15T17:56:28.953Z,92.22
2022-11-15T17:59:05.721Z,86.82
2022-11-15T18:01:38.013Z,101.95
2022-11-15T18:04:09.472Z,86.95
2022-11-15T18:06:38.097Z,90.80
2022-11-15T18:09:07.514Z,92.43
2022-11-15T18:11:41.729Z,86.90
2022-11-15T18:14:14.305Z,93.40
2022-11-15T18:16:42.807Z,95.13
2022-11-15T18:19:14.353Z,91.90
2022-11-15T18:21:56.699Z,92.40
2022-11-15T18:24:28.563Z,93.35
2022-11-15T18:26:58.076Z,81.57
2022-11-15T18:29:26.632Z,68.90
2022-11-15T18:31:56.710Z,91.57
2022-11-15T18:34:27.599Z,79.20
2022-11-15T18:36:55.553Z,80.07
2022-11-15T18:39:23.569Z,83.57
2022-11-15T18:41:52.876Z,79.10
2022-11-15T18:44:22.569Z,86.28
2022-11-15T18:46:52.260Z,85.32
2022-11-15T18:49:20.745Z,75.57
2022-11-15T18:51:52.353Z,71.43
2022-11-15T18:54:20.602Z,71.45
2022-11-15T18:56:48.871Z,69.68
2022-11-15T18:59:18.078Z,85.43
2022-11-15T19:01:50.334Z,68.93
2022-11-15T19:04:20.232Z,73.50
2022-11-15T19:06:50.227Z,67.65
2022-11-15T19:09:19.856Z,58.13
2022-11-15T19:11:51.936Z,54.63
2022-11-15T19:14:24.605Z,65.45
2022-11-15T19:16:53.481Z,67.43
2022-11-15T19:19:27.920Z,71.40
2022-11-15T19:21:57.904Z,73.30
2022-11-15T19:24:27.563Z,78.15
2022-11-15T19:26:56.277Z,70.73
2022-11-15T19:29:24.721Z,81.22
2022-11-15T19:31:55.396Z,82.32
2022-11-15T19:34:24.028Z,94.25
2022-11-15T19:36:54.947Z,88.90
2022-11-15T19:39:23.219Z,79.35
2022-11-15T19:41:54.142Z,83.65
2022-11-15T19:44:23.462Z,89.18
2022-11-15T19:46:51.923Z,95.70
2022-11-15T19:49:19.988Z,98.78
2022-11-15T19:51:48.925Z,94.88
2022-11-15T19:54:17.592Z,101.00
2022-11-15T19:56:49.139Z,102.70
2022-11-15T19:59:18.485Z,100.18
2022-11-15T20:01:48.189Z,105.00
2022-11-15T20:04:17.823Z,102.75
2022-11-15T20:06:47.163Z,103.40
2022-11-15T20:09:17.560Z,103.25
2022-11-15T20:11:45.867Z,100.13
2022-11-15T20:14:14.328Z,106.72
2022-11-15T20:16:43.044Z,95.18
2022-11-15T20:19:12.725Z,93.35
2022-11-15T20:21:40.886Z,83.40
2022-11-15T20:24:10.656Z,83.25
2022-11-15T20:26:40.058Z,59.85
2022-11-15T20:29:10.305Z,77.70
2022-11-15T20:31:38.458Z,70.47
2022-11-15T20:34:07.015Z,69.88
2022-11-15T20:36:37.303Z,75.82
2022-11-15T20:39:07.084Z,87.45
2022-11-15T20:41:34.988Z,87.88
2022-11-15T20:44:03.842Z,98.18
2022-11-15T20:46:31.744Z,96.68
2022-11-15T20:49:01.081Z,99.80
2022-11-15T20:51:29.051Z,101.55
2022-11-15T20:54:00.283Z,93.88
2022-11-15T20:56:29.042Z,85.25
2022-11-15T20:58:57.132Z,82.63
2022-11-15T21:01:26.549Z,83.78
2022-11-15T21:03:58.916Z,86.33
2022-11-15T21:06:28.249Z,92.63
2022-11-15T21:09:15.487Z,100.82
2022-11-15T21:12:03.607Z,118.22
2022-11-15T21:14:34.222Z,109.68
2022-11-15T21:17:03.089Z,105.82
2022-11-15T21:19:35.538Z,125.05
2022-11-15T21:22:08.814Z,170.10
2022-11-15T21:24:36.871Z,167.27
2022-11-15T21:27:07.497Z,121.72
2022-11-15T21:29:41.119Z,124.03
2022-11-15T21:32:10.670Z,126.72
2022-11-15T21:34:38.917Z,149.43
2022-11-15T21:37:08.755Z,111.65
2022-11-15T21:39:42.781Z,95.15
2022-11-15T21:42:11.812Z,96.88
2022-11-15T21:44:50.662Z,90.32
2022-11-15T21:47:19.467Z,92.50
2022-11-15T21:49:48.770Z,98.32
2022-11-15T21:52:17.894Z,94.55
2022-11-15T21:54:46.804Z,100.35
2022-11-15T21:57:21.431Z,94.07
2022-11-15T22:00:12.167Z,94.75
2022-11-15T22:02:46.934Z,92.45
2022-11-15T22:05:27.751Z,97.50
2022-11-15T22:10:23.023Z,84.05
2022-11-15T22:12:50.749Z,86.35
2022-11-15T22:15:18.438Z,88.57
2022-11-15T22:17:58.164Z,84.70
2022-11-15T22:20:44.161Z,83.65
2022-11-15T22:23:12.996Z,82.25
2022-11-15T22:25:41.034Z,87.28
2022-11-15T22:28:09.136Z,78.95
2022-11-15T22:30:37.151Z,76.57
2022-11-15T22:33:04.915Z,76.20
2022-11-15T22:35:35.179Z,71.53
2022-11-15T22:38:02.841Z,77.22
2022-11-15T22:40:31.205Z,73.45
2022-11-15T22:42:59.504Z,83.18
2022-11-15T22:45:27.145Z,75.95
2022-11-15T22:47:54.904Z,70.72
2022-11-15T22:50:23.767Z,105.20
2022-11-15T22:52:51.813Z,79.78
2022-11-15T22:55:19.458Z,73.22
2022-11-15T22:57:47.132Z,73.88
2022-11-15T23:00:16.512Z,70.78
2022-11-15T23:02:44.122Z,76.00
2022-11-15T23:05:12.260Z,71.30
2022-11-15T23:07:39.955Z,77.90
2022-11-15T23:10:26.843Z,71.38
2022-11-15T23:13:12.869Z,78.05
2022-11-15T23:15:59.247Z,73.70
2022-11-15T23:18:27.231Z,78.50
2022-11-15T23:20:55.466Z,75.70
2022-11-15T23:23:23.125Z,77.05
2022-11-15T23:25:59.370Z,77.80
2022-11-15T23:28:35.886Z,74.03
2022-11-15T23:31:25.486Z,78.82
2022-11-15T23:33:59.605Z,82.55
2022-11-15T23:36:28.666Z,77.88
2022-11-15T23:38:56.731Z,76.07
2022-11-15T23:41:24.944Z,77.25
2022-11-15T23:43:53.085Z,73.13
2022-11-15T23:46:21.655Z,80.20
2022-11-15T23:48:49.459Z,77.03
2022-11-15T23:51:17.336Z,75.57
2022-11-15T23:53:45.032Z,71.03
2022-11-15T23:56:17.736Z,73.88
2022-11-15T23:58:46.587Z,73.38
